sensor_id;sensor_type;location;lat;lon;timestamp;temperature;humidity
43949;DHT22;29429;51.074;13.764;2024-01-15T00:01:00;3.20;99.90
43949;DHT22;29429;51.074;13.764;2024-01-15T00:03:27;3.20;99.90
43949;DHT22;29429;51.074;13.764;2024-01-15T00:05:54;3.20;99.90
43949;DHT22;29429;51.074;13.764;2024-01-15T00:08:21;3.20;99.90
43949;DHT22;29429;51.074;13.764;2024-01-15T00:10:48;3.20;99.90
43949;DHT22;29429;51.074;13.764;2024-01-15T00:13:15;3.20;99.90
43949;DHT22;29429;51.074;13.764;2024-01-15T00:15:42;3.20;99.90
43949;DHT22;29429;51.074;13.764;2024-01-15T00:18:10;3.20;99.90
43949;DHT22;29429;51.074;13.764;2024-01-15T00:20:37;3.20;99.90
43949;DHT22;29429;51.074;13.764;2024-01-15T00:23:04;3.10;99.90
43949;DHT22;29429;51.074;13.764;2024-01-15T00:25:31;3.20;99.90
43949;DHT22;29429;51.074;13.764;2024-01-15T00:27:59;3.20;99.90
43949;DHT22;29429;51.074;13.764;2024-01-15T00:30:25;3.10;99.90
43949;DHT22;29429;51.074;13.764;2024-01-15T00:32:53;3.10;99.90
43949;DHT22;29429;51.074;13.764;2024-01-15T00:35:20;3.10;99.90
43949;DHT22;29429;51.074;13.764;2024-01-15T00:37:47;3.20;99.90
43949;DHT22;29429;51.074;13.764;2024-01-15T00:40:14;3.20;99.90
43949;DHT22;29429;51.074;13.764;2024-01-15T00:42:41;3.20;99.90
43949;DHT22;29429;51.074;13.764;2024-01-15T00:45:08;3.20;99.90
43949;DHT22;29429;51.074;13.764;2024-01-15T00:47:36;3.20;99.90
43949;DHT22;29429;51.074;13.764;2024-01-15T00:50:03;3.20;99.90
43949;DHT22;29429;51.074;13.764;2024-01-15T00:52:30;3.20;99.90
43949;DHT22;29429;51.074;13.764;2024-01-15T00:54:57;3.20;99.90
43949;DHT22;29429;51.074;13.764;2024-01-15T00:57:24;3.20;99.90
43949;DHT22;29429;51.074;13.764;2024-01-15T00:59:51;3.10;99.90
43949;DHT22;29429;51.074;13.764;2024-01-15T01:02:18;3.10;99.90
43949;DHT22;29429;51.074;13.764;2024-01-15T01:04:45;3.10;99.90
43949;DHT22;29429;51.074;13.764;2024-01-15T01:07:12;3.10;99.90
43949;DHT22;29429;51.074;13.764;2024-01-15T01:09:39;3.10;99.90
43949;DHT22;29429;51.074;13.764;2024-01-15T01:12:06;3.00;99.90
43949;DHT22;29429;51.074;13.764;2024-01-15T01:14:33;3.00;99.90
43949;DHT22;29429;51.074;13.764;2024-01-15T01:17:00;3.00;99.90
43949;DHT22;29429;51.074;13.764;2024-01-15T01:19:27;3.00;99.90
43949;DHT22;29429;51.074;13.764;2024-01-15T01:21:54;3.00;99.90
43949;DHT22;29429;51.074;13.764;2024-01-15T01:24:21;2.90;99.90
43949;DHT22;29429;51.074;13.764;2024-01-15T01:26:48;3.00;99.90
43949;DHT22;29429;51.074;13.764;2024-01-15T01:29:15;2.90;99.90
43949;DHT22;29429;51.074;13.764;2024-01-15T01:31:45;2.90;99.90
43949;DHT22;29429;51.074;13.764;2024-01-15T01:34:16;2.90;99.90
43949;DHT22;29429;51.074;13.764;2024-01-15T01:36:43;2.90;99.90
43949;DHT22;29429;51.074;13.764;2024-01-15T01:39:11;2.80;99.90
43949;DHT22;29429;51.074;13.764;2024-01-15T01:41:38;2.80;99.90
43949;DHT22;29429;51.074;13.764;2024-01-15T01:44:06;2.80;99.90
43949;DHT22;29429;51.074;13.764;2024-01-15T01:46:35;2.80;99.90
43949;DHT22;29429;51.074;13.764;2024-01-15T01:49:08;2.70;99.90
43949;DHT22;29429;51.074;13.764;2024-01-15T01:51:36;2.80;99.90
43949;DHT22;29429;51.074;13.764;2024-01-15T01:54:06;2.80;99.90
43949;DHT22;29429;51.074;13.764;2024-01-15T01:56:35;2.80;99.90
43949;DHT22;29429;51.074;13.764;2024-01-15T01:59:02;2.80;99.90
43949;DHT22;29429;51.074;13.764;2024-01-15T02:01:31;2.80;99.90
43949;DHT22;29429;51.074;13.764;2024-01-15T02:03:59;2.90;99.90
43949;DHT22;29429;51.074;13.764;2024-01-15T02:06:27;2.80;99.90
43949;DHT22;29429;51.074;13.764;2024-01-15T02:08:55;2.80;99.90
43949;DHT22;29429;51.074;13.764;2024-01-15T02:11:22;2.80;99.90
43949;DHT22;29429;51.074;13.764;2024-01-15T02:13:49;2.80;99.90
43949;DHT22;29429;51.074;13.764;2024-01-15T02:16:16;2.80;99.90
43949;DHT22;29429;51.074;13.764;2024-01-15T02:18:45;2.80;99.90
43949;DHT22;29429;51.074;13.764;2024-01-15T02:21:13;2.80;99.90
43949;DHT22;29429;51.074;13.764;2024-01-15T02:23:40;2.90;99.90
43949;DHT22;29429;51.074;13.764;2024-01-15T02:26:07;2.80;99.90
43949;DHT22;29429;51.074;13.764;2024-01-15T02:28:35;2.80;99.90
43949;DHT22;29429;51.074;13.764;2024-01-15T02:31:02;2.80;99.90
43949;DHT22;29429;51.074;13.764;2024-01-15T02:33:30;2.80;99.90
43949;DHT22;29429;51.074;13.764;2024-01-15T02:35:57;2.80;99.90
43949;DHT22;29429;51.074;13.764;2024-01-15T02:38:24;2.80;99.90
43949;DHT22;29429;51.074;13.764;2024-01-15T02:40:51;2.80;99.90
43949;DHT22;29429;51.074;13.764;2024-01-15T02:43:18;2.80;99.90
43949;DHT22;29429;51.074;13.764;2024-01-15T02:45:46;2.80;99.90
43949;DHT22;29429;51.074;13.764;2024-01-15T02:48:13;2.80;99.90
43949;DHT22;29429;51.074;13.764;2024-01-15T02:50:41;2.80;99.90
43949;DHT22;29429;51.074;13.764;2024-01-15T02:53:08;2.80;99.90
43949;DHT22;29429;51.074;13.764;2024-01-15T02:55:35;2.80;99.90
43949;DHT22;29429;51.074;13.764;2024-01-15T02:58:03;2.80;99.90
43949;DHT22;29429;51.074;13.764;2024-01-15T03:00:30;2.80;99.90
43949;DHT22;29429;51.074;13.764;2024-01-15T03:02:57;2.80;99.90
43949;DHT22;29429;51.074;13.764;2024-01-15T03:05:24;2.80;99.90
43949;DHT22;29429;51.074;13.764;2024-01-15T03:07:51;2.70;99.90
43949;DHT22;29429;51.074;13.764;2024-01-15T03:10:18;2.80;99.90
43949;DHT22;29429;51.074;13.764;2024-01-15T03:12:45;2.80;99.90
43949;DHT22;29429;51.074;13.764;2024-01-15T03:15:12;2.70;99.90
43949;DHT22;29429;51.074;13.764;2024-01-15T03:17:41;2.70;99.90
43949;DHT22;29429;51.074;13.764;2024-01-15T03:20:10;2.70;99.90
43949;DHT22;29429;51.074;13.764;2024-01-15T03:22:37;2.80;99.90
43949;DHT22;29429;51.074;13.764;2024-01-15T03:25:05;2.70;99.90
43949;DHT22;29429;51.074;13.764;2024-01-15T03:27:33;2.70;99.90
43949;DHT22;29429;51.074;13.764;2024-01-15T03:30:00;2.70;99.90
43949;DHT22;29429;51.074;13.764;2024-01-15T03:32:28;2.70;99.90
43949;DHT22;29429;51.074;13.764;2024-01-15T03:34:55;2.70;99.90
43949;DHT22;29429;51.074;13.764;2024-01-15T03:37:22;2.70;99.90
43949;DHT22;29429;51.074;13.764;2024-01-15T03:39:49;2.70;99.90
43949;DHT22;29429;51.074;13.764;2024-01-15T03:42:17;2.70;99.90
43949;DHT22;29429;51.074;13.764;2024-01-15T03:44:43;2.60;99.90
43949;DHT22;29429;51.074;13.764;2024-01-15T03:47:10;2.60;99.90
43949;DHT22;29429;51.074;13.764;2024-01-15T03:49:37;2.60;99.90
43949;DHT22;29429;51.074;13.764;2024-01-15T03:52:05;2.60;99.90
43949;DHT22;29429;51.074;13.764;2024-01-15T03:54:32;2.60;99.90
43949;DHT22;29429;51.074;13.764;2024-01-15T03:56:59;2.50;99.90
43949;DHT22;29429;51.074;13.764;2024-01-15T03:59:26;2.50;99.90
43949;DHT22;29429;51.074;13.764;2024-01-15T04:01:53;2.50;99.90
43949;DHT22;29429;51.074;13.764;2024-01-15T04:04:20;2.50;99.90
43949;DHT22;29429;51.074;13.764;2024-01-15T04:06:47;2.50;99.90
43949;DHT22;29429;51.074;13.764;2024-01-15T04:09:14;2.50;99.90
43949;DHT22;29429;51.074;13.764;2024-01-15T04:11:41;2.50;99.90
43949;DHT22;29429;51.074;13.764;2024-01-15T04:14:08;2.40;99.90
43949;DHT22;29429;51.074;13.764;2024-01-15T04:16:37;2.40;99.90
43949;DHT22;29429;51.074;13.764;2024-01-15T04:19:04;2.40;99.90
43949;DHT22;29429;51.074;13.764;2024-01-15T04:21:31;2.40;99.90
43949;DHT22;29429;51.074;13.764;2024-01-15T04:23:59;2.30;99.90
43949;DHT22;29429;51.074;13.764;2024-01-15T04:26:25;2.40;99.90
43949;DHT22;29429;51.074;13.764;2024-01-15T04:28:52;2.30;99.90
43949;DHT22;29429;51.074;13.764;2024-01-15T04:31:26;2.30;99.90
43949;DHT22;29429;51.074;13.764;2024-01-15T04:33:56;2.30;99.90
43949;DHT22;29429;51.074;13.764;2024-01-15T04:36:23;2.20;99.90
43949;DHT22;29429;51.074;13.764;2024-01-15T04:38:50;2.20;99.90
43949;DHT22;29429;51.074;13.764;2024-01-15T04:41:17;2.20;99.90
43949;DHT22;29429;51.074;13.764;2024-01-15T04:43:44;2.20;99.90
43949;DHT22;29429;51.074;13.764;2024-01-15T04:46:11;2.20;99.90
43949;DHT22;29429;51.074;13.764;2024-01-15T04:48:38;2.20;99.90
43949;DHT22;29429;51.074;13.764;2024-01-15T04:51:05;2.20;99.90
43949;DHT22;29429;51.074;13.764;2024-01-15T04:53:35;2.20;99.90
43949;DHT22;29429;51.074;13.764;2024-01-15T04:56:02;2.10;99.90
43949;DHT22;29429;51.074;13.764;2024-01-15T04:58:29;2.10;99.90
43949;DHT22;29429;51.074;13.764;2024-01-15T05:00:56;2.00;99.90
43949;DHT22;29429;51.074;13.764;2024-01-15T05:03:24;2.00;99.90
43949;DHT22;29429;51.074;13.764;2024-01-15T05:05:51;1.90;99.90
43949;DHT22;29429;51.074;13.764;2024-01-15T05:08:18;1.70;99.90
43949;DHT22;29429;51.074;13.764;2024-01-15T05:10:45;1.60;99.90
43949;DHT22;29429;51.074;13.764;2024-01-15T05:13:12;1.60;99.90
43949;DHT22;29429;51.074;13.764;2024-01-15T05:15:39;1.50;99.90
43949;DHT22;29429;51.074;13.764;2024-01-15T05:18:06;1.40;99.90
43949;DHT22;29429;51.074;13.764;2024-01-15T05:20:34;1.40;99.90
43949;DHT22;29429;51.074;13.764;2024-01-15T05:23:01;1.40;99.90
43949;DHT22;29429;51.074;13.764;2024-01-15T05:25:28;1.50;99.90
43949;DHT22;29429;51.074;13.764;2024-01-15T05:27:55;1.40;99.90
43949;DHT22;29429;51.074;13.764;2024-01-15T05:30:23;1.50;99.90
43949;DHT22;29429;51.074;13.764;2024-01-15T05:32:50;1.60;99.90
43949;DHT22;29429;51.074;13.764;2024-01-15T05:35:17;1.60;99.90
43949;DHT22;29429;51.074;13.764;2024-01-15T05:37:44;1.70;99.90
43949;DHT22;29429;51.074;13.764;2024-01-15T05:40:12;1.70;99.90
43949;DHT22;29429;51.074;13.764;2024-01-15T05:42:40;1.70;99.90
43949;DHT22;29429;51.074;13.764;2024-01-15T05:45:08;1.70;99.90
43949;DHT22;29429;51.074;13.764;2024-01-15T05:47:36;1.60;99.90
43949;DHT22;29429;51.074;13.764;2024-01-15T05:50:03;1.50;99.90
43949;DHT22;29429;51.074;13.764;2024-01-15T05:52:31;1.50;99.90
43949;DHT22;29429;51.074;13.764;2024-01-15T05:54:58;1.50;99.90
43949;DHT22;29429;51.074;13.764;2024-01-15T05:57:25;1.60;99.90
43949;DHT22;29429;51.074;13.764;2024-01-15T05:59:53;1.60;99.90
43949;DHT22;29429;51.074;13.764;2024-01-15T06:02:20;1.70;99.90
43949;DHT22;29429;51.074;13.764;2024-01-15T06:04:47;1.80;99.90
43949;DHT22;29429;51.074;13.764;2024-01-15T06:07:14;1.80;99.90
43949;DHT22;29429;51.074;13.764;2024-01-15T06:09:41;1.80;99.90
43949;DHT22;29429;51.074;13.764;2024-01-15T06:12:08;1.80;99.90
43949;DHT22;29429;51.074;13.764;2024-01-15T06:14:35;1.80;99.90
43949;DHT22;29429;51.074;13.764;2024-01-15T06:17:03;1.90;99.90
43949;DHT22;29429;51.074;13.764;2024-01-15T06:19:30;1.80;99.90
43949;DHT22;29429;51.074;13.764;2024-01-15T06:21:57;1.80;99.90
43949;DHT22;29429;51.074;13.764;2024-01-15T06:24:24;1.90;99.90
43949;DHT22;29429;51.074;13.764;2024-01-15T06:26:51;1.90;99.90
43949;DHT22;29429;51.074;13.764;2024-01-15T06:29:18;1.90;99.90
43949;DHT22;29429;51.074;13.764;2024-01-15T06:31:45;1.90;99.90
43949;DHT22;29429;51.074;13.764;2024-01-15T06:34:12;1.90;99.90
43949;DHT22;29429;51.074;13.764;2024-01-15T06:36:39;1.90;99.90
43949;DHT22;29429;51.074;13.764;2024-01-15T06:39:06;2.00;99.90
43949;DHT22;29429;51.074;13.764;2024-01-15T06:41:33;2.00;99.90
43949;DHT22;29429;51.074;13.764;2024-01-15T06:44:00;2.00;99.90
43949;DHT22;29429;51.074;13.764;2024-01-15T06:46:27;2.00;99.90
43949;DHT22;29429;51.074;13.764;2024-01-15T06:48:54;2.10;99.90
43949;DHT22;29429;51.074;13.764;2024-01-15T06:51:21;2.00;99.90
43949;DHT22;29429;51.074;13.764;2024-01-15T06:53:48;2.00;99.90
43949;DHT22;29429;51.074;13.764;2024-01-15T06:56:15;2.00;99.90
43949;DHT22;29429;51.074;13.764;2024-01-15T06:58:42;2.00;99.90
43949;DHT22;29429;51.074;13.764;2024-01-15T07:01:09;2.00;99.90
43949;DHT22;29429;51.074;13.764;2024-01-15T07:03:37;2.00;99.90
43949;DHT22;29429;51.074;13.764;2024-01-15T07:06:05;2.00;99.90
43949;DHT22;29429;51.074;13.764;2024-01-15T07:08:32;2.00;99.90
43949;DHT22;29429;51.074;13.764;2024-01-15T07:10:59;2.00;99.90
43949;DHT22;29429;51.074;13.764;2024-01-15T07:13:25;2.00;99.90
43949;DHT22;29429;51.074;13.764;2024-01-15T07:15:52;2.00;99.90
43949;DHT22;29429;51.074;13.764;2024-01-15T07:18:19;2.00;99.90
43949;DHT22;29429;51.074;13.764;2024-01-15T07:20:47;2.00;99.90
43949;DHT22;29429;51.074;13.764;2024-01-15T07:23:14;2.10;99.90
43949;DHT22;29429;51.074;13.764;2024-01-15T07:25:41;2.10;99.90
43949;DHT22;29429;51.074;13.764;2024-01-15T07:28:08;2.10;99.90
43949;DHT22;29429;51.074;13.764;2024-01-15T07:30:35;2.10;99.90
43949;DHT22;29429;51.074;13.764;2024-01-15T07:33:05;2.10;99.90
43949;DHT22;29429;51.074;13.764;2024-01-15T07:35:32;2.10;99.90
43949;DHT22;29429;51.074;13.764;2024-01-15T07:37:59;2.10;99.90
43949;DHT22;29429;51.074;13.764;2024-01-15T07:40:26;2.10;99.90
43949;DHT22;29429;51.074;13.764;2024-01-15T07:42:53;2.10;99.90
43949;DHT22;29429;51.074;13.764;2024-01-15T07:45:20;2.10;99.90
43949;DHT22;29429;51.074;13.764;2024-01-15T07:47:47;2.10;99.90
43949;DHT22;29429;51.074;13.764;2024-01-15T07:50:16;2.10;99.90
43949;DHT22;29429;51.074;13.764;2024-01-15T07:52:42;2.10;99.90
43949;DHT22;29429;51.074;13.764;2024-01-15T07:55:09;2.10;99.90
43949;DHT22;29429;51.074;13.764;2024-01-15T07:57:37;2.10;99.90
43949;DHT22;29429;51.074;13.764;2024-01-15T08:00:04;2.00;99.90
43949;DHT22;29429;51.074;13.764;2024-01-15T08:02:32;2.10;99.90
43949;DHT22;29429;51.074;13.764;2024-01-15T08:05:03;2.10;99.90
43949;DHT22;29429;51.074;13.764;2024-01-15T08:07:30;2.10;99.90
43949;DHT22;29429;51.074;13.764;2024-01-15T08:09:57;2.10;99.90
43949;DHT22;29429;51.074;13.764;2024-01-15T08:12:25;2.10;99.90
43949;DHT22;29429;51.074;13.764;2024-01-15T08:14:52;2.10;99.90
43949;DHT22;29429;51.074;13.764;2024-01-15T08:17:19;2.10;99.90
43949;DHT22;29429;51.074;13.764;2024-01-15T08:19:45;2.10;99.90
43949;DHT22;29429;51.074;13.764;2024-01-15T08:22:13;2.10;99.90
43949;DHT22;29429;51.074;13.764;2024-01-15T08:24:40;2.20;99.90
43949;DHT22;29429;51.074;13.764;2024-01-15T08:27:07;2.10;99.90
43949;DHT22;29429;51.074;13.764;2024-01-15T08:29:34;2.10;99.90
43949;DHT22;29429;51.074;13.764;2024-01-15T08:32:01;2.10;99.90
43949;DHT22;29429;51.074;13.764;2024-01-15T08:34:28;2.10;99.90
43949;DHT22;29429;51.074;13.764;2024-01-15T08:36:57;2.00;99.90
43949;DHT22;29429;51.074;13.764;2024-01-15T08:39:24;2.10;99.90
43949;DHT22;29429;51.074;13.764;2024-01-15T08:41:51;2.10;99.90
43949;DHT22;29429;51.074;13.764;2024-01-15T08:44:18;2.10;99.90
43949;DHT22;29429;51.074;13.764;2024-01-15T08:46:45;2.10;99.90
43949;DHT22;29429;51.074;13.764;2024-01-15T08:49:12;2.10;99.90
43949;DHT22;29429;51.074;13.764;2024-01-15T08:51:39;2.10;99.90
43949;DHT22;29429;51.074;13.764;2024-01-15T08:54:06;2.10;99.90
43949;DHT22;29429;51.074;13.764;2024-01-15T08:56:35;2.10;99.90
43949;DHT22;29429;51.074;13.764;2024-01-15T08:59:02;2.10;99.90
43949;DHT22;29429;51.074;13.764;2024-01-15T09:01:29;2.10;99.90
43949;DHT22;29429;51.074;13.764;2024-01-15T09:03:56;2.10;99.90
43949;DHT22;29429;51.074;13.764;2024-01-15T09:06:23;2.20;99.90
43949;DHT22;29429;51.074;13.764;2024-01-15T09:08:50;2.20;99.90
43949;DHT22;29429;51.074;13.764;2024-01-15T09:11:17;2.30;99.90
43949;DHT22;29429;51.074;13.764;2024-01-15T09:13:44;2.20;99.90
43949;DHT22;29429;51.074;13.764;2024-01-15T09:16:11;2.20;99.90
43949;DHT22;29429;51.074;13.764;2024-01-15T09:18:38;2.30;99.90
43949;DHT22;29429;51.074;13.764;2024-01-15T09:21:05;2.40;99.90
43949;DHT22;29429;51.074;13.764;2024-01-15T09:23:33;2.60;99.90
43949;DHT22;29429;51.074;13.764;2024-01-15T09:26:00;2.70;99.90
43949;DHT22;29429;51.074;13.764;2024-01-15T09:28:27;2.80;99.90
43949;DHT22;29429;51.074;13.764;2024-01-15T09:30:54;2.80;99.90
43949;DHT22;29429;51.074;13.764;2024-01-15T09:33:21;2.90;99.90
43949;DHT22;29429;51.074;13.764;2024-01-15T09:35:48;3.00;99.90
43949;DHT22;29429;51.074;13.764;2024-01-15T09:38:16;3.10;99.90
43949;DHT22;29429;51.074;13.764;2024-01-15T09:40:46;3.20;99.90
43949;DHT22;29429;51.074;13.764;2024-01-15T09:43:14;3.30;99.90
43949;DHT22;29429;51.074;13.764;2024-01-15T09:45:43;3.40;99.90
43949;DHT22;29429;51.074;13.764;2024-01-15T09:48:11;3.50;99.90
43949;DHT22;29429;51.074;13.764;2024-01-15T09:50:39;3.50;99.90
43949;DHT22;29429;51.074;13.764;2024-01-15T09:53:06;3.60;99.90
43949;DHT22;29429;51.074;13.764;2024-01-15T09:55:33;3.70;99.90
43949;DHT22;29429;51.074;13.764;2024-01-15T09:58:00;3.70;99.90
43949;DHT22;29429;51.074;13.764;2024-01-15T10:00:29;3.70;99.90
43949;DHT22;29429;51.074;13.764;2024-01-15T10:02:59;3.70;99.90
43949;DHT22;29429;51.074;13.764;2024-01-15T10:05:27;3.70;99.90
43949;DHT22;29429;51.074;13.764;2024-01-15T10:07:56;3.70;99.90
43949;DHT22;29429;51.074;13.764;2024-01-15T10:10:24;3.80;99.90
43949;DHT22;29429;51.074;13.764;2024-01-15T10:12:51;3.80;99.90
43949;DHT22;29429;51.074;13.764;2024-01-15T10:15:22;3.90;99.90
43949;DHT22;29429;51.074;13.764;2024-01-15T10:17:50;4.00;99.90
43949;DHT22;29429;51.074;13.764;2024-01-15T10:20:17;4.10;99.90
43949;DHT22;29429;51.074;13.764;2024-01-15T10:22:45;4.10;99.90
43949;DHT22;29429;51.074;13.764;2024-01-15T10:25:13;4.10;99.90
43949;DHT22;29429;51.074;13.764;2024-01-15T10:27:41;4.10;99.90
43949;DHT22;29429;51.074;13.764;2024-01-15T10:30:09;4.00;99.90
43949;DHT22;29429;51.074;13.764;2024-01-15T10:32:37;4.00;99.90
43949;DHT22;29429;51.074;13.764;2024-01-15T10:35:04;4.00;99.90
43949;DHT22;29429;51.074;13.764;2024-01-15T10:37:34;4.00;99.90
43949;DHT22;29429;51.074;13.764;2024-01-15T10:40:02;4.00;99.90
43949;DHT22;29429;51.074;13.764;2024-01-15T10:42:32;4.10;99.90
43949;DHT22;29429;51.074;13.764;2024-01-15T10:44:59;4.10;99.90
43949;DHT22;29429;51.074;13.764;2024-01-15T10:47:26;4.10;99.90
43949;DHT22;29429;51.074;13.764;2024-01-15T10:49:54;4.10;99.90
43949;DHT22;29429;51.074;13.764;2024-01-15T10:52:21;4.00;99.90
43949;DHT22;29429;51.074;13.764;2024-01-15T10:54:49;3.90;99.90
43949;DHT22;29429;51.074;13.764;2024-01-15T10:57:17;3.90;99.90
43949;DHT22;29429;51.074;13.764;2024-01-15T10:59:47;3.80;99.90
43949;DHT22;29429;51.074;13.764;2024-01-15T11:02:14;3.80;99.90
43949;DHT22;29429;51.074;13.764;2024-01-15T11:04:42;3.70;99.90
43949;DHT22;29429;51.074;13.764;2024-01-15T11:07:10;3.70;99.90
43949;DHT22;29429;51.074;13.764;2024-01-15T11:09:39;3.70;99.90
43949;DHT22;29429;51.074;13.764;2024-01-15T11:12:11;3.60;99.90
43949;DHT22;29429;51.074;13.764;2024-01-15T11:14:41;3.60;99.90
43949;DHT22;29429;51.074;13.764;2024-01-15T11:17:12;3.60;99.90
43949;DHT22;29429;51.074;13.764;2024-01-15T11:19:45;3.60;99.90
43949;DHT22;29429;51.074;13.764;2024-01-15T11:25:03;3.50;99.90
43949;DHT22;29429;51.074;13.764;2024-01-15T11:27:44;3.50;99.90
43949;DHT22;29429;51.074;13.764;2024-01-15T11:30:20;3.50;99.90
43949;DHT22;29429;51.074;13.764;2024-01-15T11:32:52;3.40;99.90
43949;DHT22;29429;51.074;13.764;2024-01-15T11:35:19;3.40;99.90
43949;DHT22;29429;51.074;13.764;2024-01-15T11:42:59;3.50;99.90
43949;DHT22;29429;51.074;13.764;2024-01-15T11:45:27;3.60;99.90
43949;DHT22;29429;51.074;13.764;2024-01-15T11:50:47;3.80;99.90
43949;DHT22;29429;51.074;13.764;2024-01-15T11:53:37;3.90;99.90
43949;DHT22;29429;51.074;13.764;2024-01-15T11:56:15;4.20;99.90
43949;DHT22;29429;51.074;13.764;2024-01-15T11:58:45;4.30;99.90
43949;DHT22;29429;51.074;13.764;2024-01-15T12:01:13;4.40;99.90
43949;DHT22;29429;51.074;13.764;2024-01-15T12:03:40;4.40;99.90
43949;DHT22;29429;51.074;13.764;2024-01-15T12:06:08;4.40;99.90
43949;DHT22;29429;51.074;13.764;2024-01-15T12:08:37;4.40;99.90
43949;DHT22;29429;51.074;13.764;2024-01-15T12:11:07;4.50;99.90
43949;DHT22;29429;51.074;13.764;2024-01-15T12:13:40;4.60;99.90
43949;DHT22;29429;51.074;13.764;2024-01-15T12:16:07;4.50;99.90
43949;DHT22;29429;51.074;13.764;2024-01-15T12:18:34;4.50;99.90
43949;DHT22;29429;51.074;13.764;2024-01-15T12:21:04;4.40;99.90
43949;DHT22;29429;51.074;13.764;2024-01-15T12:23:31;4.30;99.90
43949;DHT22;29429;51.074;13.764;2024-01-15T12:25:58;4.30;99.90
43949;DHT22;29429;51.074;13.764;2024-01-15T12:28:27;4.20;99.90
43949;DHT22;29429;51.074;13.764;2024-01-15T12:30:55;4.20;99.90
43949;DHT22;29429;51.074;13.764;2024-01-15T12:33:23;4.20;99.90
43949;DHT22;29429;51.074;13.764;2024-01-15T12:35:53;4.20;99.90
43949;DHT22;29429;51.074;13.764;2024-01-15T12:38:20;4.20;99.90
43949;DHT22;29429;51.074;13.764;2024-01-15T12:40:48;4.20;99.90
43949;DHT22;29429;51.074;13.764;2024-01-15T12:43:15;4.20;99.90
43949;DHT22;29429;51.074;13.764;2024-01-15T12:45:42;4.30;99.90
43949;DHT22;29429;51.074;13.764;2024-01-15T12:48:09;4.40;99.90
43949;DHT22;29429;51.074;13.764;2024-01-15T12:50:37;4.30;99.90
43949;DHT22;29429;51.074;13.764;2024-01-15T12:53:04;4.30;99.90
43949;DHT22;29429;51.074;13.764;2024-01-15T12:55:31;4.30;99.90
43949;DHT22;29429;51.074;13.764;2024-01-15T12:57:58;4.30;99.90
43949;DHT22;29429;51.074;13.764;2024-01-15T13:00:25;4.30;99.90
43949;DHT22;29429;51.074;13.764;2024-01-15T13:02:53;4.20;99.90
43949;DHT22;29429;51.074;13.764;2024-01-15T13:05:22;4.20;99.90
43949;DHT22;29429;51.074;13.764;2024-01-15T13:07:50;4.10;99.90
43949;DHT22;29429;51.074;13.764;2024-01-15T13:10:17;4.10;99.90
43949;DHT22;29429;51.074;13.764;2024-01-15T13:12:44;4.00;99.90
43949;DHT22;29429;51.074;13.764;2024-01-15T13:15:11;4.00;99.90
43949;DHT22;29429;51.074;13.764;2024-01-15T13:17:41;3.90;99.90
43949;DHT22;29429;51.074;13.764;2024-01-15T13:20:10;3.90;99.90
43949;DHT22;29429;51.074;13.764;2024-01-15T13:22:38;3.90;99.90
43949;DHT22;29429;51.074;13.764;2024-01-15T13:25:07;3.80;99.90
43949;DHT22;29429;51.074;13.764;2024-01-15T13:27:35;3.80;99.90
43949;DHT22;29429;51.074;13.764;2024-01-15T13:30:05;3.90;99.90
43949;DHT22;29429;51.074;13.764;2024-01-15T13:32:34;3.90;99.90
43949;DHT22;29429;51.074;13.764;2024-01-15T13:35:02;3.90;99.90
43949;DHT22;29429;51.074;13.764;2024-01-15T13:37:32;3.90;99.90
43949;DHT22;29429;51.074;13.764;2024-01-15T13:39:59;3.90;99.90
43949;DHT22;29429;51.074;13.764;2024-01-15T13:42:26;3.90;99.90
43949;DHT22;29429;51.074;13.764;2024-01-15T13:44:54;3.90;99.90
43949;DHT22;29429;51.074;13.764;2024-01-15T13:47:21;3.80;99.90
43949;DHT22;29429;51.074;13.764;2024-01-15T13:49:48;3.80;99.90
43949;DHT22;29429;51.074;13.764;2024-01-15T13:52:16;3.70;99.90
43949;DHT22;29429;51.074;13.764;2024-01-15T13:54:43;3.70;99.90
43949;DHT22;29429;51.074;13.764;2024-01-15T13:57:17;3.70;99.90
43949;DHT22;29429;51.074;13.764;2024-01-15T13:59:45;3.60;99.90
43949;DHT22;29429;51.074;13.764;2024-01-15T14:02:12;3.50;99.90
43949;DHT22;29429;51.074;13.764;2024-01-15T14:04:46;3.40;99.90
43949;DHT22;29429;51.074;13.764;2024-01-15T14:07:16;3.30;99.90
43949;DHT22;29429;51.074;13.764;2024-01-15T14:09:44;3.30;99.90
43949;DHT22;29429;51.074;13.764;2024-01-15T14:12:11;3.20;99.90
43949;DHT22;29429;51.074;13.764;2024-01-15T14:14:38;3.10;99.90
43949;DHT22;29429;51.074;13.764;2024-01-15T14:17:06;3.00;99.90
43949;DHT22;29429;51.074;13.764;2024-01-15T14:19:33;2.90;99.90
43949;DHT22;29429;51.074;13.764;2024-01-15T14:22:01;2.90;99.90
43949;DHT22;29429;51.074;13.764;2024-01-15T14:24:28;2.80;99.90
43949;DHT22;29429;51.074;13.764;2024-01-15T14:26:55;2.80;99.90
43949;DHT22;29429;51.074;13.764;2024-01-15T14:29:22;2.80;99.90
43949;DHT22;29429;51.074;13.764;2024-01-15T14:31:52;2.80;99.90
43949;DHT22;29429;51.074;13.764;2024-01-15T14:34:20;2.80;99.90
43949;DHT22;29429;51.074;13.764;2024-01-15T14:36:50;2.80;99.90
43949;DHT22;29429;51.074;13.764;2024-01-15T14:39:22;2.70;99.90
43949;DHT22;29429;51.074;13.764;2024-01-15T14:41:49;2.70;99.90
43949;DHT22;29429;51.074;13.764;2024-01-15T14:44:16;2.70;99.90
43949;DHT22;29429;51.074;13.764;2024-01-15T14:46:43;2.70;99.90
43949;DHT22;29429;51.074;13.764;2024-01-15T14:49:10;2.70;99.90
43949;DHT22;29429;51.074;13.764;2024-01-15T14:51:38;2.60;99.90
43949;DHT22;29429;51.074;13.764;2024-01-15T14:54:05;2.60;99.90
43949;DHT22;29429;51.074;13.764;2024-01-15T14:56:31;2.70;99.90
43949;DHT22;29429;51.074;13.764;2024-01-15T14:58:59;2.60;99.90
43949;DHT22;29429;51.074;13.764;2024-01-15T15:01:26;2.50;99.90
43949;DHT22;29429;51.074;13.764;2024-01-15T15:03:53;2.50;99.90
43949;DHT22;29429;51.074;13.764;2024-01-15T15:06:20;2.30;99.90
43949;DHT22;29429;51.074;13.764;2024-01-15T15:08:48;2.30;99.90
43949;DHT22;29429;51.074;13.764;2024-01-15T15:11:15;2.20;99.90
43949;DHT22;29429;51.074;13.764;2024-01-15T15:13:42;2.20;99.90
43949;DHT22;29429;51.074;13.764;2024-01-15T15:16:15;2.10;99.90
43949;DHT22;29429;51.074;13.764;2024-01-15T15:18:42;2.10;99.90
43949;DHT22;29429;51.074;13.764;2024-01-15T15:21:13;2.10;99.90
43949;DHT22;29429;51.074;13.764;2024-01-15T15:23:41;2.00;99.90
43949;DHT22;29429;51.074;13.764;2024-01-15T15:26:09;2.00;99.90
43949;DHT22;29429;51.074;13.764;2024-01-15T15:28:36;2.00;99.90
43949;DHT22;29429;51.074;13.764;2024-01-15T15:31:04;2.00;99.90
43949;DHT22;29429;51.074;13.764;2024-01-15T15:33:35;2.10;99.90
43949;DHT22;29429;51.074;13.764;2024-01-15T15:36:03;2.00;99.90
43949;DHT22;29429;51.074;13.764;2024-01-15T15:38:32;2.00;99.90
43949;DHT22;29429;51.074;13.764;2024-01-15T15:41:00;2.00;99.90
43949;DHT22;29429;51.074;13.764;2024-01-15T15:43:28;2.00;99.90